sensor_id;sensor_type;location;lat;lon;timestamp;pressure;altitude;pressure_sealevel;temperature;humidity
71149;BME280;59072;42.144;25.200;2023-04-23T00:00:50;100124.19;;;11.27;100.00
71149;BME280;59072;42.144;25.200;2023-04-23T00:03:17;100143.84;;;11.33;100.00
71149;BME280;59072;42.144;25.200;2023-04-23T00:05:44;100140.03;;;10.78;100.00
71149;BME280;59072;42.144;25.200;2023-04-23T00:08:09;100136.94;;;10.81;100.00
71149;BME280;59072;42.144;25.200;2023-04-23T00:10:36;100139.72;;;10.93;100.00
71149;BME280;59072;42.144;25.200;2023-04-23T00:13:02;100142.81;;;10.90;100.00
71149;BME280;59072;42.144;25.200;2023-04-23T00:15:28;100143.47;;;10.85;100.00
71149;BME280;59072;42.144;25.200;2023-04-23T00:17:54;100141.06;;;10.77;100.00
71149;BME280;59072;42.144;25.200;2023-04-23T00:20:20;100140.69;;;10.49;100.00
71149;BME280;59072;42.144;25.200;2023-04-23T00:22:46;100134.31;;;10.50;100.00
71149;BME280;59072;42.144;25.200;2023-04-23T00:25:11;100136.47;;;10.27;100.00
71149;BME280;59072;42.144;25.200;2023-04-23T00:27:37;100132.13;;;10.01;100.00
71149;BME280;59072;42.144;25.200;2023-04-23T00:30:03;100133.91;;;10.14;100.00
71149;BME280;59072;42.144;25.200;2023-04-23T00:32:29;100124.66;;;10.17;100.00
71149;BME280;59072;42.144;25.200;2023-04-23T00:34:54;100133.56;;;10.36;100.00
71149;BME280;59072;42.144;25.200;2023-04-23T00:37:21;100129.94;;;10.30;100.00
71149;BME280;59072;42.144;25.200;2023-04-23T00:39:46;100132.06;;;10.15;100.00
71149;BME280;59072;42.144;25.200;2023-04-23T00:42:12;100138.16;;;10.22;100.00
71149;BME280;59072;42.144;25.200;2023-04-23T00:44:39;100142.78;;;10.01;100.00
71149;BME280;59072;42.144;25.200;2023-04-23T00:47:05;100133.75;;;10.02;100.00
71149;BME280;59072;42.144;25.200;2023-04-23T00:49:32;100148.44;;;10.18;100.00
71149;BME280;59072;42.144;25.200;2023-04-23T00:51:58;100130.59;;;10.19;100.00
71149;BME280;59072;42.144;25.200;2023-04-23T00:54:25;100137.41;;;10.47;100.00
71149;BME280;59072;42.144;25.200;2023-04-23T00:56:51;100149.84;;;10.59;100.00
71149;BME280;59072;42.144;25.200;2023-04-23T00:59:17;100153.00;;;10.75;100.00
71149;BME280;59072;42.144;25.200;2023-04-23T01:01:42;100165.50;;;10.49;100.00
71149;BME280;59072;42.144;25.200;2023-04-23T01:04:11;100157.69;;;10.54;100.00
71149;BME280;59072;42.144;25.200;2023-04-23T01:06:39;100159.84;;;10.25;100.00
71149;BME280;59072;42.144;25.200;2023-04-23T01:09:06;100157.94;;;10.08;100.00
71149;BME280;59072;42.144;25.200;2023-04-23T01:11:32;100156.31;;;10.00;100.00
71149;BME280;59072;42.144;25.200;2023-04-23T01:13:58;100147.44;;;10.13;100.00
71149;BME280;59072;42.144;25.200;2023-04-23T01:16:24;100149.44;;;10.24;100.00
71149;BME280;59072;42.144;25.200;2023-04-23T01:18:49;100157.88;;;10.14;100.00
71149;BME280;59072;42.144;25.200;2023-04-23T01:21:16;100146.13;;;9.90;100.00
71149;BME280;59072;42.144;25.200;2023-04-23T01:23:42;100161.31;;;9.83;100.00
71149;BME280;59072;42.144;25.200;2023-04-23T01:26:07;100163.75;;;9.91;100.00
71149;BME280;59072;42.144;25.200;2023-04-23T01:28:35;100160.38;;;10.09;100.00
71149;BME280;59072;42.144;25.200;2023-04-23T01:31:01;100155.97;;;9.90;100.00
71149;BME280;59072;42.144;25.200;2023-04-23T01:33:26;100157.59;;;9.91;100.00
71149;BME280;59072;42.144;25.200;2023-04-23T01:35:53;100153.81;;;9.67;100.00
71149;BME280;59072;42.144;25.200;2023-04-23T01:38:21;100129.59;;;9.75;100.00
71149;BME280;59072;42.144;25.200;2023-04-23T01:40:46;100152.38;;;9.71;100.00
71149;BME280;59072;42.144;25.200;2023-04-23T01:43:13;100162.22;;;9.63;100.00
71149;BME280;59072;42.144;25.200;2023-04-23T01:45:40;100158.94;;;9.61;100.00
71149;BME280;59072;42.144;25.200;2023-04-23T01:48:05;100162.22;;;9.63;100.00
71149;BME280;59072;42.144;25.200;2023-04-23T01:50:31;100158.16;;;9.48;100.00
71149;BME280;59072;42.144;25.200;2023-04-23T01:52:57;100158.09;;;9.68;100.00
71149;BME280;59072;42.144;25.200;2023-04-23T01:55:22;100158.06;;;9.81;100.00
71149;BME280;59072;42.144;25.200;2023-04-23T01:57:48;100165.13;;;10.00;100.00
71149;BME280;59072;42.144;25.200;2023-04-23T02:00:14;100151.84;;;9.94;100.00
71149;BME280;59072;42.144;25.200;2023-04-23T02:02:42;100171.41;;;10.13;100.00
71149;BME280;59072;42.144;25.200;2023-04-23T02:05:15;100165.56;;;9.97;100.00
71149;BME280;59072;42.144;25.200;2023-04-23T02:07:43;100164.47;;;10.12;100.00
71149;BME280;59072;42.144;25.200;2023-04-23T02:10:09;100164.38;;;10.32;100.00
71149;BME280;59072;42.144;25.200;2023-04-23T02:12:36;100172.34;;;10.32;100.00
71149;BME280;59072;42.144;25.200;2023-04-23T02:15:01;100174.63;;;10.21;100.00
71149;BME280;59072;42.144;25.200;2023-04-23T02:17:27;100171.13;;;9.89;100.00
71149;BME280;59072;42.144;25.200;2023-04-23T02:19:53;100169.50;;;9.88;100.00
71149;BME280;59072;42.144;25.200;2023-04-23T02:22:21;100159.72;;;9.75;100.00
71149;BME280;59072;42.144;25.200;2023-04-23T02:24:52;100171.91;;;9.96;100.00
71149;BME280;59072;42.144;25.200;2023-04-23T02:27:17;100171.91;;;9.96;100.00
71149;BME280;59072;42.144;25.200;2023-04-23T02:29:43;100175.44;;;10.29;100.00
71149;BME280;59072;42.144;25.200;2023-04-23T02:32:09;100179.47;;;10.06;100.00
71149;BME280;59072;42.144;25.200;2023-04-23T02:34:35;100176.34;;;10.16;100.00
71149;BME280;59072;42.144;25.200;2023-04-23T02:37:00;100173.13;;;10.00;100.00
71149;BME280;59072;42.144;25.200;2023-04-23T02:39:26;100174.31;;;9.59;100.00
71149;BME280;59072;42.144;25.200;2023-04-23T02:41:51;100173.22;;;9.74;100.00
71149;BME280;59072;42.144;25.200;2023-04-23T02:44:17;100178.75;;;9.79;100.00
71149;BME280;59072;42.144;25.200;2023-04-23T02:46:42;100176.50;;;9.76;100.00
71149;BME280;59072;42.144;25.200;2023-04-23T02:49:07;100183.78;;;10.00;100.00
71149;BME280;59072;42.144;25.200;2023-04-23T02:51:33;100184.56;;;10.08;100.00
71149;BME280;59072;42.144;25.200;2023-04-23T02:53:58;100185.22;;;9.96;100.00
71149;BME280;59072;42.144;25.200;2023-04-23T02:56:24;100180.34;;;9.93;100.00
71149;BME280;59072;42.144;25.200;2023-04-23T02:58:49;100190.59;;;9.90;100.00
71149;BME280;59072;42.144;25.200;2023-04-23T03:01:15;100188.69;;;10.03;100.00
71149;BME280;59072;42.144;25.200;2023-04-23T03:03:41;100188.09;;;10.01;100.00
71149;BME280;59072;42.144;25.200;2023-04-23T03:06:07;100184.34;;;10.09;100.00
71149;BME280;59072;42.144;25.200;2023-04-23T03:08:33;100200.09;;;10.17;100.00
71149;BME280;59072;42.144;25.200;2023-04-23T03:10:58;100201.81;;;9.98;100.00
71149;BME280;59072;42.144;25.200;2023-04-23T03:13:24;100191.47;;;9.77;100.00
71149;BME280;59072;42.144;25.200;2023-04-23T03:15:52;100184.78;;;9.41;100.00
71149;BME280;59072;42.144;25.200;2023-04-23T03:18:18;100183.81;;;9.15;100.00
71149;BME280;59072;42.144;25.200;2023-04-23T03:20:44;100170.53;;;9.02;100.00
71149;BME280;59072;42.144;25.200;2023-04-23T03:23:09;100186.50;;;9.02;100.00
71149;BME280;59072;42.144;25.200;2023-04-23T03:25:34;100188.13;;;8.90;100.00
71149;BME280;59072;42.144;25.200;2023-04-23T03:28:00;100171.34;;;8.96;100.00
71149;BME280;59072;42.144;25.200;2023-04-23T03:30:26;100187.06;;;9.31;100.00
71149;BME280;59072;42.144;25.200;2023-04-23T03:32:54;100179.91;;;9.31;100.00
71149;BME280;59072;42.144;25.200;2023-04-23T03:35:20;100195.66;;;9.46;100.00
71149;BME280;59072;42.144;25.200;2023-04-23T03:37:45;100191.16;;;9.40;100.00
71149;BME280;59072;42.144;25.200;2023-04-23T03:40:11;100195.03;;;9.51;100.00
71149;BME280;59072;42.144;25.200;2023-04-23T03:42:37;100185.00;;;9.46;100.00
71149;BME280;59072;42.144;25.200;2023-04-23T03:45:02;100204.63;;;9.52;100.00
71149;BME280;59072;42.144;25.200;2023-04-23T03:47:28;100193.41;;;9.23;100.00
71149;BME280;59072;42.144;25.200;2023-04-23T03:49:54;100197.31;;;9.07;100.00
71149;BME280;59072;42.144;25.200;2023-04-23T03:52:19;100193.44;;;8.96;100.00
71149;BME280;59072;42.144;25.200;2023-04-23T03:54:45;100208.38;;;8.91;100.00
71149;BME280;59072;42.144;25.200;2023-04-23T03:57:10;100197.94;;;8.82;100.00
71149;BME280;59072;42.144;25.200;2023-04-23T03:59:36;100198.56;;;8.98;100.00
71149;BME280;59072;42.144;25.200;2023-04-23T04:02:02;100194.28;;;9.03;100.00
71149;BME280;59072;42.144;25.200;2023-04-23T04:04:30;100203.69;;;8.99;100.00
71149;BME280;59072;42.144;25.200;2023-04-23T04:06:56;100212.84;;;9.37;100.00
71149;BME280;59072;42.144;25.200;2023-04-23T04:09:24;100200.38;;;9.31;100.00
71149;BME280;59072;42.144;25.200;2023-04-23T04:11:51;100218.38;;;9.42;100.00
71149;BME280;59072;42.144;25.200;2023-04-23T04:14:18;100209.34;;;9.50;100.00
71149;BME280;59072;42.144;25.200;2023-04-23T04:16:43;100216.91;;;9.59;100.00
71149;BME280;59072;42.144;25.200;2023-04-23T04:19:08;100222.59;;;9.83;100.00
71149;BME280;59072;42.144;25.200;2023-04-23T04:21:34;100226.09;;;9.77;100.00
71149;BME280;59072;42.144;25.200;2023-04-23T04:23:59;100218.94;;;9.71;100.00
71149;BME280;59072;42.144;25.200;2023-04-23T04:26:26;100221.66;;;9.51;100.00
71149;BME280;59072;42.144;25.200;2023-04-23T04:28:52;100227.78;;;9.44;100.00
71149;BME280;59072;42.144;25.200;2023-04-23T04:31:17;100226.44;;;9.94;100.00
71149;BME280;59072;42.144;25.200;2023-04-23T04:33:46;100235.84;;;9.96;100.00
71149;BME280;59072;42.144;25.200;2023-04-23T04:36:12;100235.78;;;10.16;100.00
71149;BME280;59072;42.144;25.200;2023-04-23T04:38:38;100227.81;;;10.10;100.00
71149;BME280;59072;42.144;25.200;2023-04-23T04:41:04;100231.81;;;10.25;100.00
71149;BME280;59072;42.144;25.200;2023-04-23T04:43:31;100250.34;;;10.59;100.00
71149;BME280;59072;42.144;25.200;2023-04-23T04:45:57;100243.78;;;10.61;100.00
71149;BME280;59072;42.144;25.200;2023-04-23T04:48:23;100241.59;;;10.83;100.00
71149;BME280;59072;42.144;25.200;2023-04-23T04:50:49;100253.97;;;10.71;100.00
71149;BME280;59072;42.144;25.200;2023-04-23T04:53:14;100255.00;;;10.70;100.00
71149;BME280;59072;42.144;25.200;2023-04-23T04:55:40;100238.88;;;10.58;100.00
71149;BME280;59072;42.144;25.200;2023-04-23T04:58:06;100258.53;;;10.64;100.00
71149;BME280;59072;42.144;25.200;2023-04-23T05:00:31;100260.56;;;10.69;100.00
71149;BME280;59072;42.144;25.200;2023-04-23T05:02:57;100265.00;;;10.81;100.00
71149;BME280;59072;42.144;25.200;2023-04-23T05:05:24;100264.41;;;11.04;100.00
71149;BME280;59072;42.144;25.200;2023-04-23T05:07:50;100240.59;;;11.03;100.00
71149;BME280;59072;42.144;25.200;2023-04-23T05:10:16;100265.34;;;10.92;100.00
71149;BME280;59072;42.144;25.200;2023-04-23T05:12:42;100268.88;;;10.85;100.00
71149;BME280;59072;42.144;25.200;2023-04-23T05:15:09;100272.69;;;10.96;98.76
71149;BME280;59072;42.144;25.200;2023-04-23T05:17:37;100266.47;;;11.02;99.51
71149;BME280;59072;42.144;25.200;2023-04-23T05:20:03;100268.59;;;10.94;100.00
71149;BME280;59072;42.144;25.200;2023-04-23T05:22:29;100260.22;;;11.15;99.62
71149;BME280;59072;42.144;25.200;2023-04-23T05:24:54;100270.84;;;11.47;98.19
71149;BME280;59072;42.144;25.200;2023-04-23T05:27:20;100274.13;;;11.68;96.28
71149;BME280;59072;42.144;25.200;2023-04-23T05:29:45;100284.47;;;11.82;96.26
71149;BME280;59072;42.144;25.200;2023-04-23T05:32:11;100275.91;;;11.74;94.29
71149;BME280;59072;42.144;25.200;2023-04-23T05:34:38;100275.88;;;11.99;94.02
71149;BME280;59072;42.144;25.200;2023-04-23T05:37:03;100288.44;;;12.17;92.46
71149;BME280;59072;42.144;25.200;2023-04-23T05:39:28;100285.63;;;12.12;93.94
71149;BME280;59072;42.144;25.200;2023-04-23T05:41:54;100290.97;;;12.30;92.62
71149;BME280;59072;42.144;25.200;2023-04-23T05:44:20;100291.84;;;12.24;95.02
71149;BME280;59072;42.144;25.200;2023-04-23T05:46:45;100271.97;;;12.20;94.63
71149;BME280;59072;42.144;25.200;2023-04-23T05:49:11;100299.72;;;12.19;94.15
71149;BME280;59072;42.144;25.200;2023-04-23T05:51:36;100298.41;;;12.28;91.62
71149;BME280;59072;42.144;25.200;2023-04-23T05:54:02;100300.13;;;12.83;89.62
71149;BME280;59072;42.144;25.200;2023-04-23T05:56:27;100302.03;;;12.94;91.26
71149;BME280;59072;42.144;25.200;2023-04-23T05:58:52;100301.16;;;13.12;89.15
71149;BME280;59072;42.144;25.200;2023-04-23T06:01:18;100298.53;;;13.36;85.75
71149;BME280;59072;42.144;25.200;2023-04-23T06:03:44;100297.25;;;13.50;87.69
71149;BME280;59072;42.144;25.200;2023-04-23T06:06:13;100300.41;;;13.59;85.05
71149;BME280;59072;42.144;25.200;2023-04-23T06:08:38;100309.28;;;13.59;85.41
71149;BME280;59072;42.144;25.200;2023-04-23T06:11:04;100301.81;;;13.73;84.23
71149;BME280;59072;42.144;25.200;2023-04-23T06:13:30;100283.97;;;13.55;85.18
71149;BME280;59072;42.144;25.200;2023-04-23T06:15:56;100307.38;;;13.48;85.54
71149;BME280;59072;42.144;25.200;2023-04-23T06:18:22;100303.31;;;13.45;85.66
71149;BME280;59072;42.144;25.200;2023-04-23T06:20:47;100284.56;;;13.57;84.68
71149;BME280;59072;42.144;25.200;2023-04-23T06:23:15;100304.72;;;13.83;86.15
71149;BME280;59072;42.144;25.200;2023-04-23T06:25:41;100304.16;;;14.22;81.67
71149;BME280;59072;42.144;25.200;2023-04-23T06:28:06;100294.69;;;13.79;84.69
71149;BME280;59072;42.144;25.200;2023-04-23T06:30:32;100305.41;;;13.79;84.44
71149;BME280;59072;42.144;25.200;2023-04-23T06:32:57;100304.63;;;14.31;82.29
71149;BME280;59072;42.144;25.200;2023-04-23T06:35:23;100300.75;;;14.38;81.78
71149;BME280;59072;42.144;25.200;2023-04-23T06:37:48;100310.00;;;14.71;84.45
71149;BME280;59072;42.144;25.200;2023-04-23T06:40:14;100306.19;;;14.67;82.82
71149;BME280;59072;42.144;25.200;2023-04-23T06:42:39;100300.69;;;14.62;82.69
71149;BME280;59072;42.144;25.200;2023-04-23T06:45:05;100310.41;;;14.63;79.89
71149;BME280;59072;42.144;25.200;2023-04-23T06:47:31;100310.88;;;14.48;79.39
71149;BME280;59072;42.144;25.200;2023-04-23T06:49:57;100307.59;;;14.58;82.39
71149;BME280;59072;42.144;25.200;2023-04-23T06:52:24;100307.56;;;14.70;79.71
71149;BME280;59072;42.144;25.200;2023-04-23T06:54:49;100303.63;;;14.60;79.63
71149;BME280;59072;42.144;25.200;2023-04-23T06:57:15;100298.94;;;14.27;81.40
71149;BME280;59072;42.144;25.200;2023-04-23T06:59:40;100300.91;;;14.20;84.33
71149;BME280;59072;42.144;25.200;2023-04-23T07:02:06;100296.88;;;14.58;81.78
71149;BME280;59072;42.144;25.200;2023-04-23T07:04:31;100307.41;;;14.76;82.63
71149;BME280;59072;42.144;25.200;2023-04-23T07:06:57;100303.28;;;14.85;81.22
71149;BME280;59072;42.144;25.200;2023-04-23T07:09:23;100293.22;;;14.52;82.69
71149;BME280;59072;42.144;25.200;2023-04-23T07:11:48;100306.91;;;14.51;81.63
71149;BME280;59072;42.144;25.200;2023-04-23T07:14:14;100308.94;;;14.72;78.77
71149;BME280;59072;42.144;25.200;2023-04-23T07:16:39;100310.63;;;15.07;79.06
71149;BME280;59072;42.144;25.200;2023-04-23T07:19:05;100310.00;;;15.34;77.69
71149;BME280;59072;42.144;25.200;2023-04-23T07:21:30;100305.09;;;14.97;75.91
71149;BME280;59072;42.144;25.200;2023-04-23T07:23:57;100310.25;;;15.15;76.55
71149;BME280;59072;42.144;25.200;2023-04-23T07:26:31;100300.13;;;15.05;75.61
71149;BME280;59072;42.144;25.200;2023-04-23T07:28:57;100304.63;;;15.00;74.69
71149;BME280;59072;42.144;25.200;2023-04-23T07:31:22;100321.88;;;15.38;71.23
71149;BME280;59072;42.144;25.200;2023-04-23T07:33:48;100304.94;;;15.88;68.88
71149;BME280;59072;42.144;25.200;2023-04-23T07:36:13;100313.91;;;15.94;66.94
71149;BME280;59072;42.144;25.200;2023-04-23T07:38:39;100317.09;;;15.74;65.86
71149;BME280;59072;42.144;25.200;2023-04-23T07:41:05;100312.88;;;16.22;66.84
71149;BME280;59072;42.144;25.200;2023-04-23T07:43:30;100314.84;;;16.04;65.94
71149;BME280;59072;42.144;25.200;2023-04-23T07:45:56;100315.16;;;16.30;61.58
71149;BME280;59072;42.144;25.200;2023-04-23T07:48:21;100302.03;;;16.61;60.89
71149;BME280;59072;42.144;25.200;2023-04-23T07:50:46;100313.75;;;16.99;56.63
71149;BME280;59072;42.144;25.200;2023-04-23T07:53:12;100311.97;;;15.72;51.38
71149;BME280;59072;42.144;25.200;2023-04-23T07:55:38;100315.31;;;16.01;56.40
71149;BME280;59072;42.144;25.200;2023-04-23T07:58:03;100295.69;;;16.01;57.13
71149;BME280;59072;42.144;25.200;2023-04-23T08:00:29;100302.50;;;16.09;56.09
71149;BME280;59072;42.144;25.200;2023-04-23T08:02:54;100300.13;;;16.34;59.92
71149;BME280;59072;42.144;25.200;2023-04-23T08:05:20;100309.84;;;16.35;53.97
71149;BME280;59072;42.144;25.200;2023-04-23T08:07:46;100301.44;;;16.10;49.75
71149;BME280;59072;42.144;25.200;2023-04-23T08:10:11;100301.31;;;15.99;53.47
71149;BME280;59072;42.144;25.200;2023-04-23T08:12:37;100297.53;;;16.44;51.66
71149;BME280;59072;42.144;25.200;2023-04-23T08:15:03;100294.41;;;16.53;51.73
71149;BME280;59072;42.144;25.200;2023-04-23T08:17:28;100295.94;;;16.93;51.43
71149;BME280;59072;42.144;25.200;2023-04-23T08:19:54;100289.38;;;16.83;52.22
71149;BME280;59072;42.144;25.200;2023-04-23T08:22:19;100294.84;;;16.94;50.36
71149;BME280;59072;42.144;25.200;2023-04-23T08:24:45;100302.59;;;17.12;51.95
71149;BME280;59072;42.144;25.200;2023-04-23T08:27:10;100293.44;;;16.86;47.02
71149;BME280;59072;42.144;25.200;2023-04-23T08:29:36;100295.13;;;16.70;52.57
71149;BME280;59072;42.144;25.200;2023-04-23T08:32:01;100292.09;;;16.61;50.15
71149;BME280;59072;42.144;25.200;2023-04-23T08:34:27;100296.41;;;16.40;45.72
71149;BME280;59072;42.144;25.200;2023-04-23T08:36:52;100287.41;;;16.52;51.90
71149;BME280;59072;42.144;25.200;2023-04-23T08:39:18;100285.06;;;16.82;50.13
71149;BME280;59072;42.144;25.200;2023-04-23T08:41:46;100266.78;;;16.90;48.45
71149;BME280;59072;42.144;25.200;2023-04-23T08:44:18;100268.19;;;16.92;47.67
71149;BME280;59072;42.144;25.200;2023-04-23T08:46:44;100279.47;;;17.21;49.28
71149;BME280;59072;42.144;25.200;2023-04-23T08:49:14;100283.72;;;17.12;44.61
71149;BME280;59072;42.144;25.200;2023-04-23T08:51:51;100271.94;;;17.23;44.44
71149;BME280;59072;42.144;25.200;2023-04-23T08:54:27;100282.31;;;17.42;44.43
71149;BME280;59072;42.144;25.200;2023-04-23T08:56:56;100261.63;;;17.95;47.62
71149;BME280;59072;42.144;25.200;2023-04-23T08:59:29;100256.88;;;17.75;46.41
71149;BME280;59072;42.144;25.200;2023-04-23T09:01:56;100273.78;;;18.03;44.93
71149;BME280;59072;42.144;25.200;2023-04-23T09:04:21;100264.69;;;18.24;45.87
71149;BME280;59072;42.144;25.200;2023-04-23T09:06:48;100269.75;;;18.05;42.94
71149;BME280;59072;42.144;25.200;2023-04-23T09:09:15;100280.53;;;18.00;42.05
71149;BME280;59072;42.144;25.200;2023-04-23T09:11:41;100269.25;;;18.09;44.41
71149;BME280;59072;42.144;25.200;2023-04-23T09:14:07;100278.84;;;17.89;38.32
71149;BME280;59072;42.144;25.200;2023-04-23T09:16:33;100259.34;;;17.77;39.02
71149;BME280;59072;42.144;25.200;2023-04-23T09:18:58;100276.56;;;18.28;43.47
71149;BME280;59072;42.144;25.200;2023-04-23T09:21:24;100274.78;;;18.55;43.59
71149;BME280;59072;42.144;25.200;2023-04-23T09:23:50;100266.22;;;18.89;42.68
71149;BME280;59072;42.144;25.200;2023-04-23T09:26:20;100265.69;;;18.86;38.99
71149;BME280;59072;42.144;25.200;2023-04-23T09:28:49;100258.09;;;19.04;42.51
71149;BME280;59072;42.144;25.200;2023-04-23T09:31:22;100260.78;;;19.35;40.68
71149;BME280;59072;42.144;25.200;2023-04-23T09:33:52;100264.84;;;19.32;41.88
71149;BME280;59072;42.144;25.200;2023-04-23T09:36:22;100267.03;;;19.10;38.31
71149;BME280;59072;42.144;25.200;2023-04-23T09:38:55;100238.63;;;19.27;41.34
71149;BME280;59072;42.144;25.200;2023-04-23T09:41:25;100248.38;;;19.23;39.37
71149;BME280;59072;42.144;25.200;2023-04-23T09:43:52;100256.41;;;19.59;37.19
71149;BME280;59072;42.144;25.200;2023-04-23T09:46:34;100245.59;;;19.64;42.24
71149;BME280;59072;42.144;25.200;2023-04-23T09:49:04;100248.63;;;19.22;39.06
71149;BME280;59072;42.144;25.200;2023-04-23T09:51:34;100223.97;;;19.49;42.59
71149;BME280;59072;42.144;25.200;2023-04-23T09:54:01;100243.44;;;19.61;37.85
71149;BME280;59072;42.144;25.200;2023-04-23T09:56:29;100210.94;;;19.82;39.67
71149;BME280;59072;42.144;25.200;2023-04-23T09:58:55;100232.88;;;20.35;39.23
71149;BME280;59072;42.144;25.200;2023-04-23T10:01:27;100227.75;;;20.34;39.79
71149;BME280;59072;42.144;25.200;2023-04-23T10:03:53;100217.38;;;20.46;35.22
71149;BME280;59072;42.144;25.200;2023-04-23T10:06:26;100223.66;;;21.10;36.61
71149;BME280;59072;42.144;25.200;2023-04-23T10:08:56;100223.00;;;21.23;34.58
71149;BME280;59072;42.144;25.200;2023-04-23T10:11:23;100215.28;;;19.67;38.62
71149;BME280;59072;42.144;25.200;2023-04-23T10:13:50;100219.28;;;19.91;36.51
71149;BME280;59072;42.144;25.200;2023-04-23T10:16:16;100207.25;;;20.57;38.50
71149;BME280;59072;42.144;25.200;2023-04-23T10:18:42;100206.25;;;20.47;37.63
71149;BME280;59072;42.144;25.200;2023-04-23T10:21:10;100190.59;;;20.39;37.29
71149;BME280;59072;42.144;25.200;2023-04-23T10:23:37;100193.78;;;20.46;40.94
71149;BME280;59072;42.144;25.200;2023-04-23T10:26:06;100203.44;;;20.23;38.52
71149;BME280;59072;42.144;25.200;2023-04-23T10:28:34;100203.16;;;20.25;38.93
71149;BME280;59072;42.144;25.200;2023-04-23T10:31:00;100191.13;;;20.41;39.31
71149;BME280;59072;42.144;25.200;2023-04-23T10:33:30;100178.00;;;20.64;38.44
71149;BME280;59072;42.144;25.200;2023-04-23T10:35:56;100185.75;;;20.36;38.53
71149;BME280;59072;42.144;25.200;2023-04-23T10:38:22;100186.22;;;21.12;39.08
71149;BME280;59072;42.144;25.200;2023-04-23T10:40:49;100175.50;;;20.67;40.14
71149;BME280;59072;42.144;25.200;2023-04-23T10:43:17;100194.97;;;20.75;37.11
71149;BME280;59072;42.144;25.200;2023-04-23T10:45:43;100178.00;;;21.22;35.46
71149;BME280;59072;42.144;25.200;2023-04-23T10:48:09;100181.75;;;21.56;38.62
71149;BME280;59072;42.144;25.200;2023-04-23T10:50:35;100184.06;;;21.43;36.44
71149;BME280;59072;42.144;25.200;2023-04-23T10:53:01;100170.84;;;21.32;38.01
71149;BME280;59072;42.144;25.200;2023-04-23T10:55:29;100168.66;;;21.34;37.27
71149;BME280;59072;42.144;25.200;2023-04-23T10:58:00;100154.38;;;21.52;35.91
71149;BME280;59072;42.144;25.200;2023-04-23T11:00:27;100170.22;;;20.86;37.89
71149;BME280;59072;42.144;25.200;2023-04-23T11:02:53;100157.47;;;21.64;39.07
71149;BME280;59072;42.144;25.200;2023-04-23T11:05:21;100159.41;;;21.83;37.41
71149;BME280;59072;42.144;25.200;2023-04-23T11:08:04;100144.38;;;21.91;37.65
71149;BME280;59072;42.144;25.200;2023-04-23T11:10:30;100159.38;;;21.40;36.28
71149;BME280;59072;42.144;25.200;2023-04-23T11:12:56;100156.94;;;21.86;38.45
71149;BME280;59072;42.144;25.200;2023-04-23T11:15:22;100153.84;;;21.93;36.63
71149;BME280;59072;42.144;25.200;2023-04-23T11:18:00;100153.31;;;21.24;36.25
71149;BME280;59072;42.144;25.200;2023-04-23T11:20:25;100154.97;;;22.30;33.33
71149;BME280;59072;42.144;25.200;2023-04-23T11:22:51;100148.13;;;22.52;35.43
71149;BME280;59072;42.144;25.200;2023-04-23T11:27:48;100150.44;;;22.25;35.60
71149;BME280;59072;42.144;25.200;2023-04-23T11:32:44;100148.06;;;22.38;35.15
71149;BME280;59072;42.144;25.200;2023-04-23T11:35:12;100133.75;;;22.32;39.74
71149;BME280;59072;42.144;25.200;2023-04-23T11:37:39;100137.41;;;22.22;38.67
71149;BME280;59072;42.144;25.200;2023-04-23T11:40:09;100139.53;;;23.10;35.55
71149;BME280;59072;42.144;25.200;2023-04-23T11:42:42;100146.34;;;22.61;36.64
71149;BME280;59072;42.144;25.200;2023-04-23T11:45:20;100136.09;;;22.72;36.83
71149;BME280;59072;42.144;25.200;2023-04-23T11:47:49;100122.44;;;22.77;37.67
71149;BME280;59072;42.144;25.200;2023-04-23T11:50:30;100119.88;;;23.41;33.05
71149;BME280;59072;42.144;25.200;2023-04-23T11:53:03;100119.03;;;22.85;35.50
71149;BME280;59072;42.144;25.200;2023-04-23T11:55:28;100115.53;;;22.14;35.39
71149;BME280;59072;42.144;25.200;2023-04-23T11:57:55;100118.88;;;23.37;35.99
71149;BME280;59072;42.144;25.200;2023-04-23T12:00:23;100109.25;;;24.17;32.15
71149;BME280;59072;42.144;25.200;2023-04-23T12:03:02;100119.06;;;24.04;33.32
71149;BME280;59072;42.144;25.200;2023-04-23T12:08:13;100122.44;;;25.00;29.67
71149;BME280;59072;42.144;25.200;2023-04-23T12:13:20;100098.28;;;22.89;32.12
71149;BME280;59072;42.144;25.200;2023-04-23T12:15:54;100102.47;;;22.67;33.65
71149;BME280;59072;42.144;25.200;2023-04-23T12:18:33;100095.88;;;22.03;36.12
71149;BME280;59072;42.144;25.200;2023-04-23T12:21:05;100102.03;;;23.35;33.57
71149;BME280;59072;42.144;25.200;2023-04-23T12:23:31;100091.94;;;23.77;32.64
71149;BME280;59072;42.144;25.200;2023-04-23T12:25:58;100095.03;;;24.74;32.15
71149;BME280;59072;42.144;25.200;2023-04-23T12:28:23;100086.41;;;23.13;35.67
71149;BME280;59072;42.144;25.200;2023-04-23T12:30:49;100080.28;;;23.07;34.49
71149;BME280;59072;42.144;25.200;2023-04-23T12:33:15;100065.72;;;23.53;31.62
71149;BME280;59072;42.144;25.200;2023-04-23T12:35:51;100066.09;;;24.11;31.26
71149;BME280;59072;42.144;25.200;2023-04-23T12:38:27;100062.59;;;24.64;30.39
71149;BME280;59072;42.144;25.200;2023-04-23T12:40:57;100073.22;;;24.74;29.95
71149;BME280;59072;42.144;25.200;2023-04-23T12:43:24;100067.94;;;24.01;29.01
71149;BME280;59072;42.144;25.200;2023-04-23T12:45:50;100062.81;;;24.22;30.94